Weather History for Owatonna, MN

Change the Weather History Date:

Sunday, December 9, 2012

  Actual Average Record
Temperature  
Mean Temperature 32 °F -  
Max Temperature 35 °F 29 °F 50 °F (1990)
Min Temperature 26 °F 12 °F -15 °F (1977)
Degree Days  
Heating Degree Days 34    
Moisture  
Dew Point 28 °F    
Average Humidity 78    
Maximum Humidity 86    
Minimum Humidity 65    
Precipitation  
Precipitation 0.08 in - - ()
Sea Level Pressure  
Sea Level Pressure 29.84 in    
Wind  
Wind Speed 11 mph (East)    
Max Wind Speed 18 mph    
Max Gust Speed 24 mph    
Visibility 4 miles    
Events Snow    
Averages and records for this station are not official NWS values.
T = Trace of Precipitation, MM = Missing Value Source: NWS Daily Summary

Daily Weather History Graph

Daily Weather History Graph

Search for Another Location

Airport:

Trip Planner

Search our weather history database for the weather conditions in past years. The results will help you decide how hot, cold, wet, or windy it might be!

Date:

Astronomy

Dec. 09, 2012 Rise Set
Actual Time 7:36 AM CST 4:34 PM CST
Civil Twilight 7:03 AM CST 5:07 PM CST
Nautical Twilight 6:27 AM CST 5:43 PM CST
Astronomical Twilight 5:52 AM CST 6:18 PM CST
Moon 3:03 AM CST (12/9) 1:47 PM CST (12/9)
Length of Visible Light 10h 03m
Length of Day
8h 57m
Waning Crescent, 18% of the Moon is Illuminated
Dec 9
Waning Crescent
Dec 13
New
Dec 19
First Quarter
Dec 28
Full
Jan 4
Last Quarter

Hourly Weather History & Observations

Time (CST) Temp. Windchill Dew Point Humidity Pressure Visibility Wind Dir Wind Speed Gust Speed Precip Events Conditions
12:13 AM 35.6 °F 27.5 °F 24.8 °F 65% 29.96 in 10.0 mi ESE 11.5 mph - N/A   Scattered Clouds
12:34 AM 35.6 °F 28.0 °F 26.6 °F 70% 29.95 in 4.0 mi ESE 10.4 mph - N/A Snow Light Snow
12:54 AM 35.6 °F 28.0 °F 26.6 °F 70% 29.96 in 2.5 mi SE 10.4 mph - N/A Snow Light Snow
1:14 AM 35.6 °F 27.1 °F 28.4 °F 75% 29.95 in 1.0 mi SE 12.7 mph 16.1 mph N/A Snow Snow
1:34 AM 35.6 °F 28.0 °F 28.4 °F 75% 29.95 in 1.5 mi ESE 10.4 mph - 0.01 in Snow Light Snow
1:55 AM 35.6 °F 27.5 °F 28.4 °F 75% 29.93 in 3.0 mi ESE 11.5 mph - 0.01 in Snow Light Snow
2:13 AM 33.8 °F 25.8 °F 28.4 °F 81% 29.94 in 3.0 mi ESE 10.4 mph - N/A Snow Light Snow
2:34 AM 35.6 °F 27.5 °F 28.4 °F 75% 29.93 in 2.5 mi ESE 11.5 mph - N/A Snow Light Snow
2:54 AM 35.6 °F 27.5 °F 28.4 °F 75% 29.93 in 3.0 mi ESE 11.5 mph - N/A Snow Light Snow
3:14 AM 35.6 °F 28.0 °F 28.4 °F 75% 29.93 in 3.0 mi ESE 10.4 mph 16.1 mph N/A Snow Light Snow
3:34 AM 33.8 °F 25.3 °F 28.4 °F 81% 29.93 in 5.0 mi ESE 11.5 mph - N/A Snow Light Snow
3:54 AM 33.8 °F 26.4 °F 28.4 °F 81% 29.92 in 7.0 mi ESE 9.2 mph - N/A   Light Drizzle
4:14 AM 33.8 °F 27.0 °F 28.4 °F 81% 29.93 in 7.0 mi ESE 8.1 mph - N/A   Overcast
4:33 AM 33.8 °F 25.8 °F 28.4 °F 81% 29.92 in 7.0 mi ESE 10.4 mph 16.1 mph N/A   Overcast
4:54 AM 33.8 °F 24.8 °F 28.4 °F 81% 29.91 in 7.0 mi ESE 12.7 mph 18.4 mph N/A   Mostly Cloudy
5:14 AM 35.6 °F 27.5 °F 28.4 °F 75% 29.89 in 7.0 mi ESE 11.5 mph - N/A   Mostly Cloudy
5:34 AM 35.6 °F 27.1 °F 28.4 °F 75% 29.88 in 7.0 mi ESE 12.7 mph 18.4 mph N/A   Mostly Cloudy
5:54 AM 35.6 °F 26.6 °F 28.4 °F 75% 29.88 in 5.0 mi East 13.8 mph - N/A   Haze
6:13 AM 35.6 °F 26.2 °F 28.4 °F 75% 29.87 in 7.0 mi ESE 15.0 mph - N/A   Overcast
6:34 AM 35.6 °F 26.2 °F 28.4 °F 75% 29.87 in 7.0 mi ESE 15.0 mph - N/A   Scattered Clouds
6:54 AM 35.6 °F 25.5 °F 28.4 °F 75% 29.87 in 7.0 mi ESE 17.3 mph 24.2 mph N/A   Scattered Clouds
7:14 AM 35.6 °F 25.9 °F 28.4 °F 75% 29.87 in 5.0 mi ESE 16.1 mph 23.0 mph N/A   Haze
7:34 AM 35.6 °F 25.5 °F 28.4 °F 75% 29.87 in 7.0 mi ESE 17.3 mph - N/A   Mostly Cloudy
7:54 AM 35.6 °F 25.5 °F 28.4 °F 75% 29.87 in 3.0 mi ESE 17.3 mph - N/A Snow Light Snow
8:13 AM 35.6 °F 26.2 °F 28.4 °F 75% 29.87 in 1.2 mi ESE 15.0 mph - N/A Snow Light Snow
8:33 AM 35.6 °F 26.6 °F 28.4 °F 75% 29.86 in 0.8 mi ESE 13.8 mph - N/A Snow Light Snow
8:53 AM 35.6 °F 26.6 °F 28.4 °F 75% 29.86 in 1.0 mi ESE 13.8 mph - N/A Snow Light Snow
9:34 AM 35.6 °F 25.9 °F 30.2 °F 81% 29.85 in 0.8 mi ESE 16.1 mph - 0.01 in Snow Light Snow
9:54 AM 35.6 °F 25.9 °F 28.4 °F 75% 29.85 in 1.0 mi ESE 16.1 mph 24.2 mph 0.01 in Snow Light Snow
10:14 AM 35.6 °F 26.2 °F 28.4 °F 75% 29.85 in 1.5 mi ESE 15.0 mph - N/A Snow Light Snow
10:33 AM 35.6 °F 25.9 °F 28.4 °F 75% 29.84 in 1.5 mi ESE 16.1 mph 23.0 mph N/A Snow Light Snow
10:54 AM 35.6 °F 26.2 °F 28.4 °F 75% 29.83 in 1.5 mi ESE 15.0 mph 21.9 mph N/A Snow Light Snow
11:13 AM 35.6 °F 26.2 °F 28.4 °F 75% 29.83 in 1.8 mi ESE 15.0 mph - N/A Snow Light Snow
11:33 AM 35.6 °F 26.6 °F 28.4 °F 75% 29.82 in 1.5 mi ESE 13.8 mph - 0.01 in Snow Light Snow
11:53 AM 35.6 °F 27.1 °F 28.4 °F 75% 29.80 in 1.5 mi ESE 12.7 mph - 0.01 in Snow Light Snow
12:13 PM 35.6 °F 27.5 °F 28.4 °F 75% 29.80 in 0.8 mi ESE 11.5 mph - 0.01 in Snow Light Snow
12:33 PM 35.6 °F 28.0 °F 30.2 °F 81% 29.79 in 0.5 mi ESE 10.4 mph - 0.01 in Snow Light Snow
12:53 PM 35.6 °F 28.0 °F 28.4 °F 75% 29.78 in 1.0 mi ESE 10.4 mph - 0.02 in Snow Light Snow
1:13 PM 35.6 °F 28.0 °F 30.2 °F 81% 29.77 in 0.5 mi ESE 10.4 mph - 0.01 in Snow Light Snow
1:34 PM 35.6 °F 28.0 °F 30.2 °F 81% 29.76 in 0.5 mi ESE 10.4 mph - 0.01 in Snow Snow
1:54 PM 35.6 °F 29.2 °F 30.2 °F 81% 29.76 in 0.5 mi ESE 8.1 mph - 0.02 in Snow Light Snow
2:13 PM 35.6 °F 29.9 °F 30.2 °F 81% 29.76 in 1.0 mi East 6.9 mph - N/A Snow Light Snow
2:33 PM 35.6 °F 28.6 °F 30.2 °F 81% 29.76 in 1.5 mi East 9.2 mph - 0.01 in Snow Light Snow
2:53 PM 35.6 °F 31.7 °F 30.2 °F 81% 29.76 in 1.0 mi ESE 4.6 mph - 0.01 in Snow Light Snow
3:13 PM 35.6 °F 29.2 °F 30.2 °F 81% 29.76 in 1.5 mi East 8.1 mph - N/A Snow Light Snow
3:33 PM 35.6 °F 30.7 °F 30.2 °F 81% 29.76 in 1.8 mi East 5.8 mph - N/A Snow Light Snow
3:53 PM 35.6 °F 29.9 °F 30.2 °F 81% 29.76 in 1.2 mi East 6.9 mph - N/A Snow Light Snow
4:13 PM 35.6 °F 29.9 °F 30.2 °F 81% 29.76 in 1.5 mi East 6.9 mph - N/A   Overcast
4:34 PM 35.6 °F 31.7 °F 30.2 °F 81% 29.76 in 1.8 mi East 4.6 mph - N/A   Overcast
4:53 PM 35.6 °F 30.7 °F 30.2 °F 81% 29.76 in 2.5 mi East 5.8 mph - N/A   Overcast
5:13 PM 33.8 °F 28.6 °F 28.4 °F 81% 29.77 in 2.0 mi East 5.8 mph - N/A   Overcast
5:33 PM 33.8 °F 28.6 °F 28.4 °F 81% 29.76 in 2.0 mi ENE 5.8 mph - N/A Snow Light Snow
5:53 PM 33.8 °F 28.6 °F 28.4 °F 81% 29.76 in 2.5 mi ENE 5.8 mph - N/A Snow Light Snow
6:14 PM 33.8 °F 29.6 °F 28.4 °F 81% 29.77 in 4.0 mi ENE 4.6 mph - N/A   Haze
6:34 PM 33.8 °F 29.6 °F 28.4 °F 81% 29.77 in 4.0 mi NE 4.6 mph - N/A Snow Light Snow
6:53 PM 33.8 °F 26.4 °F 28.4 °F 81% 29.77 in 3.0 mi NNE 9.2 mph - N/A   Drizzle
7:13 PM 33.8 °F 26.4 °F 28.4 °F 81% 29.78 in 2.5 mi NNE 9.2 mph - N/A   Drizzle
7:33 PM 33.8 °F 27.0 °F 26.6 °F 75% 29.78 in 0.8 mi North 8.1 mph - N/A Snow Snow
7:53 PM 32.0 °F 23.0 °F 26.6 °F 80% 29.79 in 1.2 mi North 11.5 mph - N/A Snow Light Snow
8:13 PM 32.0 °F 23.0 °F 26.6 °F 80% 29.79 in 4.0 mi North 11.5 mph - N/A Snow Light Snow
8:33 PM 32.0 °F 22.5 °F 26.6 °F 80% 29.80 in 2.5 mi North 12.7 mph - N/A   Overcast
8:53 PM 30.2 °F 20.2 °F 26.6 °F 86% 29.80 in 5.0 mi North 12.7 mph - N/A   Overcast
9:14 PM 30.2 °F 20.2 °F 24.8 °F 80% 29.80 in 5.0 mi North 12.7 mph 18.4 mph N/A   Overcast
9:34 PM 30.2 °F 20.2 °F 24.8 °F 80% 29.82 in 5.0 mi North 12.7 mph - N/A Snow Light Snow
9:54 PM 30.2 °F 20.8 °F 24.8 °F 80% 29.82 in 10.0 mi North 11.5 mph - N/A Snow Light Snow
10:33 PM 30.2 °F 19.8 °F 24.8 °F 80% 29.83 in 10.0 mi NNW 13.8 mph - N/A   Overcast
10:54 PM 30.2 °F 19.8 °F 24.8 °F 80% 29.83 in 10.0 mi NNW 13.8 mph - N/A   Overcast
11:13 PM 30.2 °F 18.1 °F 24.8 °F 80% 29.84 in 10.0 mi NW 18.4 mph 21.9 mph N/A   Overcast
11:33 PM 28.4 °F 16.2 °F 21.2 °F 74% 29.85 in 10.0 mi NW 17.3 mph - N/A   Overcast
11:53 PM 26.6 °F 15.2 °F 19.4 °F 74% 29.85 in 7.0 mi NW 13.8 mph 23.0 mph N/A   Overcast